createdAt,value
2019-02-16T00:02:25.535Z,5.67
2019-02-16T00:04:52.827Z,5.60
2019-02-16T00:07:19.847Z,5.45
2019-02-16T00:09:47.102Z,4.70
2019-02-16T00:12:14.126Z,4.87
2019-02-16T00:14:41.268Z,4.90
2019-02-16T00:17:08.359Z,5.12
2019-02-16T00:19:35.567Z,5.10
2019-02-16T00:22:02.878Z,5.20
2019-02-16T00:24:30.407Z,4.90
2019-02-16T00:26:57.433Z,4.78
2019-02-16T00:29:25.085Z,5.12
2019-02-16T00:31:52.507Z,5.28
2019-02-16T00:34:19.695Z,5.42
2019-02-16T00:36:47.166Z,4.83
2019-02-16T00:39:14.387Z,5.53
2019-02-16T00:41:41.506Z,5.35
2019-02-16T00:44:08.821Z,4.72
2019-02-16T00:46:36.322Z,4.83
2019-02-16T00:49:03.336Z,4.78
2019-02-16T00:51:30.732Z,5.53
2019-02-16T00:53:58.782Z,4.83
2019-02-16T00:56:25.835Z,4.42
2019-02-16T00:58:53.291Z,4.80
2019-02-16T01:01:20.518Z,5.22
2019-02-16T01:03:47.617Z,4.37
2019-02-16T01:06:15.304Z,4.80
2019-02-16T01:08:42.422Z,4.55
2019-02-16T01:11:09.499Z,4.60
2019-02-16T01:13:36.885Z,5.10
2019-02-16T01:16:03.894Z,4.22
2019-02-16T01:18:31.400Z,5.78
2019-02-16T01:20:58.496Z,4.67
2019-02-16T01:23:25.747Z,5.42
2019-02-16T01:25:52.836Z,4.53
2019-02-16T01:28:20.090Z,4.75
2019-02-16T01:30:47.502Z,5.00
2019-02-16T01:33:14.716Z,5.60
2019-02-16T01:35:42.160Z,4.83
2019-02-16T01:38:09.270Z,5.00
2019-02-16T01:40:36.284Z,5.33
2019-02-16T01:43:03.720Z,5.45
2019-02-16T01:45:31.333Z,5.47
2019-02-16T01:47:58.647Z,5.62
2019-02-16T01:50:25.738Z,5.70
2019-02-16T01:52:52.906Z,5.17
2019-02-16T01:55:20.118Z,5.15
2019-02-16T01:57:47.429Z,5.08
2019-02-16T02:00:14.497Z,5.90
2019-02-16T02:02:41.586Z,5.42
2019-02-16T02:05:08.779Z,5.55
2019-02-16T02:07:36.499Z,6.05
2019-02-16T02:10:04.231Z,5.08
2019-02-16T02:12:31.319Z,5.65
2019-02-16T02:14:58.638Z,5.37
2019-02-16T02:17:25.776Z,5.33
2019-02-16T02:19:52.943Z,5.22
2019-02-16T02:22:20.204Z,4.95
2019-02-16T02:24:47.413Z,5.03
2019-02-16T02:27:15.052Z,5.17
2019-02-16T02:29:42.296Z,5.40
2019-02-16T02:32:09.408Z,5.08
2019-02-16T02:34:36.579Z,4.87
2019-02-16T02:37:04.060Z,5.33
2019-02-16T02:39:31.258Z,5.08
2019-02-16T02:41:58.421Z,4.80
2019-02-16T02:44:25.685Z,4.87
2019-02-16T02:46:53.208Z,4.78
2019-02-16T02:49:20.449Z,5.30
2019-02-16T02:51:52.375Z,5.20
2019-02-16T02:54:16.667Z,5.03
2019-02-16T02:56:43.921Z,5.05
2019-02-16T02:59:10.986Z,5.10
2019-02-16T03:01:39.539Z,5.33
2019-02-16T03:04:06.616Z,5.22
2019-02-16T03:06:34.008Z,5.40
2019-02-16T03:09:01.474Z,5.00
2019-02-16T03:11:28.704Z,5.12
2019-02-16T03:13:56.062Z,5.00
2019-02-16T03:16:23.569Z,4.85
2019-02-16T03:18:50.713Z,5.00
2019-02-16T03:21:17.812Z,5.12
2019-02-16T03:23:44.837Z,5.47
2019-02-16T03:26:37.073Z,4.90
2019-02-16T03:29:09.017Z,5.08
2019-02-16T03:32:24.420Z,4.83
2019-02-16T03:34:59.971Z,4.95
2019-02-16T03:37:58.797Z,5.55
2019-02-16T03:40:26.006Z,4.97
2019-02-16T03:42:53.227Z,4.72
2019-02-16T03:45:20.342Z,4.70
2019-02-16T03:47:47.689Z,5.08
2019-02-16T03:50:14.813Z,4.92
2019-02-16T03:52:42.173Z,5.17
2019-02-16T03:55:09.359Z,4.80
2019-02-16T03:57:36.436Z,4.87
2019-02-16T04:00:04.144Z,5.15
2019-02-16T04:02:31.390Z,5.40
2019-02-16T04:04:58.515Z,5.55
2019-02-16T04:07:25.705Z,5.28
2019-02-16T04:09:54.935Z,4.62
2019-02-16T04:12:22.101Z,5.17
2019-02-16T04:14:49.171Z,5.00
2019-02-16T04:17:16.490Z,5.03
2019-02-16T04:19:43.691Z,5.00
2019-02-16T04:22:10.690Z,5.03
2019-02-16T04:24:38.084Z,5.20
2019-02-16T04:27:05.128Z,5.05
2019-02-16T04:29:32.999Z,5.08
2019-02-16T04:32:00.065Z,4.87
2019-02-16T04:34:27.171Z,5.00
2019-02-16T04:36:55.490Z,4.97
2019-02-16T04:39:22.488Z,5.20
2019-02-16T04:41:49.599Z,5.45
2019-02-16T04:44:17.203Z,5.05
2019-02-16T04:46:44.650Z,4.50
2019-02-16T04:49:11.885Z,4.83
2019-02-16T04:51:38.869Z,4.78
2019-02-16T04:54:07.757Z,4.67
2019-02-16T04:56:35.451Z,5.30
2019-02-16T04:59:02.532Z,4.33
2019-02-16T05:01:29.783Z,4.83
2019-02-16T05:03:56.796Z,4.67
2019-02-16T05:06:24.450Z,4.55
2019-02-16T05:08:51.576Z,4.80
2019-02-16T05:11:18.640Z,5.00
2019-02-16T05:13:45.994Z,4.80
2019-02-16T05:16:13.001Z,5.05
2019-02-16T05:18:40.227Z,4.85
2019-02-16T05:21:07.277Z,4.60
2019-02-16T05:23:34.517Z,4.90
2019-02-16T05:26:02.180Z,5.17
2019-02-16T05:28:29.234Z,5.28
2019-02-16T05:30:56.294Z,4.42
2019-02-16T05:33:23.631Z,4.62
2019-02-16T05:35:50.850Z,5.10
2019-02-16T05:38:17.934Z,4.83
2019-02-16T05:40:45.485Z,4.92
2019-02-16T05:43:12.581Z,5.03
2019-02-16T05:45:39.852Z,4.55
2019-02-16T05:48:06.921Z,5.08
2019-02-16T05:50:36.620Z,5.28
2019-02-16T05:53:04.444Z,4.90
2019-02-16T05:55:31.441Z,5.30
2019-02-16T05:57:59.912Z,4.65
2019-02-16T06:00:29.059Z,4.97
2019-02-16T06:02:56.495Z,4.45
2019-02-16T06:05:23.635Z,4.60
2019-02-16T06:07:50.663Z,4.60
2019-02-16T06:10:18.151Z,4.42
2019-02-16T06:12:46.007Z,4.67
2019-02-16T06:15:16.079Z,4.20
2019-02-16T06:17:43.068Z,4.20
2019-02-16T06:20:10.098Z,4.42
2019-02-16T06:22:37.170Z,4.67
2019-02-16T06:25:04.435Z,4.95
2019-02-16T06:27:32.095Z,4.58
2019-02-16T06:29:59.937Z,4.25
2019-02-16T06:32:27.955Z,4.87
2019-02-16T06:35:06.819Z,4.80
2019-02-16T06:37:33.930Z,4.90
2019-02-16T06:40:01.434Z,4.97
2019-02-16T06:42:28.707Z,4.65
2019-02-16T06:44:55.941Z,5.22
2019-02-16T06:47:23.245Z,5.03
2019-02-16T06:49:50.308Z,4.83
2019-02-16T06:52:17.335Z,4.62
2019-02-16T06:54:44.685Z,5.17
2019-02-16T06:57:31.427Z,4.62
2019-02-16T06:59:58.765Z,4.87
2019-02-16T07:02:27.608Z,4.72
2019-02-16T07:04:54.677Z,4.83
2019-02-16T07:07:23.675Z,5.12
2019-02-16T07:09:50.726Z,5.72
2019-02-16T07:12:18.254Z,5.37
2019-02-16T07:14:45.587Z,5.22
2019-02-16T07:17:43.352Z,4.92
2019-02-16T07:20:10.829Z,4.85
2019-02-16T07:22:38.197Z,5.47
2019-02-16T07:25:06.098Z,4.97
2019-02-16T07:27:33.572Z,5.87
2019-02-16T07:30:00.975Z,5.87
2019-02-16T07:32:28.470Z,5.03
2019-02-16T07:34:55.761Z,5.25
2019-02-16T07:37:22.871Z,4.72
2019-02-16T07:39:50.268Z,5.28
2019-02-16T07:42:17.692Z,4.35
2019-02-16T07:45:08.035Z,4.72
2019-02-16T07:47:47.150Z,5.10
2019-02-16T07:50:19.234Z,4.83
2019-02-16T07:53:06.658Z,5.20
2019-02-16T07:55:49.250Z,5.58
2019-02-16T07:58:32.997Z,5.12
2019-02-16T08:01:18.547Z,5.65
2019-02-16T08:04:11.392Z,5.90
2019-02-16T08:06:45.346Z,4.65
2019-02-16T08:09:24.359Z,5.28
2019-02-16T08:12:02.092Z,6.35
2019-02-16T08:14:46.421Z,5.78
2019-02-16T08:17:33.125Z,6.03
2019-02-16T08:20:19.646Z,5.50
2019-02-16T08:23:12.993Z,5.92
2019-02-16T08:25:58.039Z,5.67
2019-02-16T08:28:30.351Z,6.70
2019-02-16T08:31:35.365Z,11.50
2019-02-16T08:34:16.189Z,7.12
2019-02-16T08:36:48.815Z,8.33
2019-02-16T08:39:25.018Z,7.22
2019-02-16T08:42:10.559Z,9.00
2019-02-16T08:44:44.846Z,5.72
2019-02-16T08:47:20.383Z,5.95
2019-02-16T08:50:10.149Z,6.00
2019-02-16T08:53:08.844Z,8.15
2019-02-16T08:56:01.561Z,7.00
2019-02-16T08:58:51.854Z,6.87
2019-02-16T09:01:38.987Z,6.35
2019-02-16T09:04:41.109Z,6.28
2019-02-16T09:07:19.244Z,6.60
2019-02-16T09:10:14.980Z,6.05
2019-02-16T09:13:02.351Z,6.85
2019-02-16T09:15:47.831Z,6.10
2019-02-16T09:18:39.844Z,7.10
2019-02-16T09:21:16.517Z,7.05
2019-02-16T09:23:58.877Z,6.33
2019-02-16T09:26:56.726Z,8.43
2019-02-16T09:29:32.545Z,7.53
2019-02-16T09:32:31.548Z,7.75
2019-02-16T09:35:17.298Z,7.10
2019-02-16T09:37:51.956Z,7.15
2019-02-16T09:40:37.368Z,7.45
2019-02-16T09:43:20.323Z,7.60
2019-02-16T09:45:56.656Z,6.80
2019-02-16T09:48:35.617Z,7.37
2019-02-16T09:51:24.498Z,7.62
2019-02-16T09:54:11.592Z,7.15
2019-02-16T09:56:46.483Z,7.12
2019-02-16T09:59:35.486Z,7.62
2019-02-16T10:02:10.963Z,7.72
2019-02-16T10:05:03.562Z,8.40
2019-02-16T10:08:05.842Z,8.08
2019-02-16T10:10:49.447Z,8.08
2019-02-16T10:13:33.850Z,7.85
2019-02-16T10:16:19.382Z,8.23
2019-02-16T10:19:12.060Z,8.85
2019-02-16T10:21:51.326Z,8.13
2019-02-16T10:24:46.712Z,8.83
2019-02-16T10:27:34.148Z,8.90
2019-02-16T10:30:13.616Z,10.32
2019-02-16T10:33:06.144Z,9.83
2019-02-16T10:35:48.284Z,9.30
2019-02-16T10:38:37.941Z,9.53
2019-02-16T10:41:27.358Z,9.73
2019-02-16T10:44:16.305Z,10.13
2019-02-16T10:47:14.995Z,10.40
2019-02-16T10:50:07.942Z,9.70
2019-02-16T10:53:06.871Z,10.95
2019-02-16T10:55:50.843Z,10.05
2019-02-16T10:58:40.998Z,11.05
2019-02-16T11:01:43.036Z,13.50
2019-02-16T11:04:38.013Z,10.25
2019-02-16T11:07:13.719Z,10.30
2019-02-16T11:10:18.711Z,12.93
2019-02-16T11:13:11.380Z,12.63
2019-02-16T11:15:48.109Z,10.10
2019-02-16T11:18:32.526Z,11.22
2019-02-16T11:21:22.893Z,10.65
2019-02-16T11:24:09.634Z,11.80
2019-02-16T11:26:58.461Z,10.58
2019-02-16T11:29:44.325Z,12.07
2019-02-16T11:32:46.052Z,11.00
2019-02-16T11:35:22.158Z,12.10
2019-02-16T11:38:07.919Z,13.20
2019-02-16T11:40:55.578Z,12.58
2019-02-16T11:43:45.880Z,11.73
2019-02-16T11:46:34.056Z,12.85
2019-02-16T11:49:10.596Z,12.60
2019-02-16T11:51:57.390Z,12.03
2019-02-16T11:54:34.285Z,13.32
2019-02-16T11:57:17.571Z,11.93
2019-02-16T11:59:56.930Z,11.93
2019-02-16T12:02:53.050Z,12.00
2019-02-16T12:05:42.181Z,11.70
2019-02-16T12:08:30.867Z,11.15
2019-02-16T12:11:05.524Z,12.90
2019-02-16T12:13:39.533Z,13.45
2019-02-16T12:16:25.148Z,12.98
2019-02-16T12:19:06.990Z,12.70
2019-02-16T12:21:42.626Z,12.05
2019-02-16T12:24:24.670Z,13.10
2019-02-16T12:27:08.939Z,13.00
2019-02-16T12:29:49.391Z,13.83
2019-02-16T12:32:32.375Z,14.28
2019-02-16T12:35:25.262Z,13.85
2019-02-16T12:38:05.527Z,12.25
2019-02-16T12:40:41.308Z,12.55
2019-02-16T12:43:20.090Z,13.50
2019-02-16T12:46:06.760Z,13.15
2019-02-16T12:49:08.880Z,13.08
2019-02-16T12:51:50.195Z,13.98
2019-02-16T12:54:35.958Z,14.33
2019-02-16T12:57:07.900Z,13.95
2019-02-16T12:59:44.097Z,17.02
2019-02-16T13:02:30.196Z,14.25
2019-02-16T13:05:24.361Z,14.00
2019-02-16T13:08:13.784Z,14.73
2019-02-16T13:10:49.983Z,13.10
2019-02-16T13:13:24.732Z,12.58
2019-02-16T13:15:59.104Z,11.30
2019-02-16T13:18:32.366Z,11.80
2019-02-16T13:21:19.402Z,11.70
2019-02-16T13:24:06.199Z,12.68
2019-02-16T13:26:42.089Z,11.15
2019-02-16T13:29:29.160Z,12.73
2019-02-16T13:32:16.181Z,13.30
2019-02-16T13:35:02.034Z,14.10
2019-02-16T13:37:34.589Z,12.43
2019-02-16T13:40:20.103Z,13.03
2019-02-16T13:42:55.519Z,14.10
2019-02-16T13:45:42.223Z,14.15
2019-02-16T13:48:23.621Z,13.40
2019-02-16T13:50:59.696Z,11.57
2019-02-16T13:53:46.590Z,11.93
2019-02-16T13:56:23.796Z,11.68
2019-02-16T13:59:13.472Z,12.50
2019-02-16T14:01:48.540Z,12.23
2019-02-16T14:04:32.027Z,12.95
2019-02-16T14:07:30.706Z,12.15
2019-02-16T14:10:08.618Z,11.70
2019-02-16T14:12:54.146Z,12.93
2019-02-16T14:15:50.012Z,13.55
2019-02-16T14:18:17.072Z,13.45
2019-02-16T14:20:44.143Z,13.25
2019-02-16T14:23:12.001Z,12.13
2019-02-16T14:25:45.707Z,13.05
2019-02-16T14:28:13.159Z,13.40
2019-02-16T14:30:40.550Z,13.08
2019-02-16T14:33:07.957Z,14.20
2019-02-16T14:35:35.422Z,12.63
2019-02-16T14:38:24.938Z,12.35
2019-02-16T14:40:52.380Z,12.63
2019-02-16T14:43:19.793Z,13.08
2019-02-16T14:45:46.979Z,13.15
2019-02-16T14:48:14.443Z,13.68
2019-02-16T14:50:42.200Z,14.15
2019-02-16T14:53:10.244Z,14.07
2019-02-16T14:55:37.258Z,13.78
2019-02-16T14:58:04.242Z,15.43
2019-02-16T15:00:31.468Z,13.50
2019-02-16T15:02:58.516Z,14.38
2019-02-16T15:05:25.979Z,14.60
2019-02-16T15:07:53.282Z,13.32
2019-02-16T15:10:20.480Z,13.90
2019-02-16T15:12:47.510Z,15.45
2019-02-16T15:15:14.843Z,15.18
2019-02-16T15:17:42.066Z,16.57
2019-02-16T15:20:11.470Z,15.45
2019-02-16T15:22:38.625Z,18.00
2019-02-16T15:25:07.394Z,18.05
2019-02-16T15:27:34.913Z,17.55
2019-02-16T15:30:02.497Z,23.50
2019-02-16T15:32:29.633Z,19.02
2019-02-16T15:34:56.991Z,22.45
2019-02-16T15:37:24.622Z,26.93
2019-02-16T15:39:52.038Z,22.80
2019-02-16T15:42:19.089Z,15.88
2019-02-16T15:44:46.422Z,16.85
2019-02-16T15:47:13.754Z,19.10
2019-02-16T15:49:41.215Z,22.10
2019-02-16T15:52:08.482Z,22.90
2019-02-16T15:54:35.771Z,17.67
2019-02-16T15:57:03.087Z,21.37
2019-02-16T15:59:35.270Z,23.02
2019-02-16T16:01:59.480Z,17.92
2019-02-16T16:04:27.240Z,22.30
2019-02-16T16:06:54.427Z,19.05
2019-02-16T16:09:53.146Z,17.87
2019-02-16T16:12:30.435Z,21.15
2019-02-16T16:15:09.021Z,26.65
2019-02-16T16:17:47.220Z,25.37
2019-02-16T16:20:21.026Z,33.53
2019-02-16T16:22:55.215Z,30.32
2019-02-16T16:25:33.365Z,24.20
2019-02-16T16:28:20.847Z,19.77
2019-02-16T16:31:11.555Z,23.98
2019-02-16T16:34:07.805Z,19.87
2019-02-16T16:36:58.009Z,19.98
2019-02-16T16:39:30.207Z,18.17
2019-02-16T16:42:26.247Z,19.55
2019-02-16T16:45:02.098Z,17.40
2019-02-16T16:47:48.923Z,18.05
2019-02-16T16:50:23.561Z,23.32
2019-02-16T16:53:17.506Z,24.85
2019-02-16T16:56:01.281Z,24.43
2019-02-16T16:58:37.654Z,22.45
2019-02-16T17:01:15.482Z,24.15
2019-02-16T17:04:05.305Z,24.57
2019-02-16T17:06:41.878Z,26.65
2019-02-16T17:09:32.398Z,29.25
2019-02-16T17:12:13.456Z,27.70
2019-02-16T17:14:57.695Z,27.75
2019-02-16T17:17:32.139Z,25.50
2019-02-16T17:20:18.790Z,28.73
2019-02-16T17:23:01.676Z,33.95
2019-02-16T17:25:39.819Z,33.00
2019-02-16T17:28:29.535Z,30.57
2019-02-16T17:31:10.090Z,29.25
2019-02-16T17:33:47.186Z,34.38
2019-02-16T17:36:37.021Z,29.90
2019-02-16T17:39:11.138Z,29.60
2019-02-16T17:42:00.643Z,30.70
2019-02-16T17:44:46.087Z,22.77
2019-02-16T17:47:31.730Z,19.48
2019-02-16T17:50:03.782Z,20.17
2019-02-16T17:52:49.006Z,24.07
2019-02-16T17:55:41.783Z,18.15
2019-02-16T17:58:23.987Z,16.77
2019-02-16T18:01:10.788Z,18.82
2019-02-16T18:03:57.546Z,22.40
2019-02-16T18:06:39.700Z,17.95
2019-02-16T18:09:16.619Z,16.07
2019-02-16T18:12:06.143Z,16.27
2019-02-16T18:14:39.380Z,18.27
2019-02-16T18:17:26.458Z,16.73
2019-02-16T18:20:02.295Z,15.78
2019-02-16T18:22:43.065Z,16.52
2019-02-16T18:25:15.614Z,19.27
2019-02-16T18:28:08.671Z,18.52
2019-02-16T18:30:53.749Z,20.75
2019-02-16T18:33:40.434Z,17.42
2019-02-16T18:36:17.339Z,18.48
2019-02-16T18:39:06.919Z,19.90
2019-02-16T18:41:56.617Z,16.93
2019-02-16T18:44:43.404Z,15.95
2019-02-16T18:47:26.791Z,16.73
2019-02-16T18:50:28.750Z,15.25
2019-02-16T18:53:14.022Z,16.65
2019-02-16T18:55:50.555Z,16.30
2019-02-16T18:58:31.846Z,16.05
2019-02-16T19:01:09.771Z,15.10
2019-02-16T19:03:55.103Z,15.65
2019-02-16T19:06:45.113Z,15.28
2019-02-16T19:09:28.858Z,15.05
2019-02-16T19:12:15.643Z,15.30
2019-02-16T19:15:06.267Z,15.95
2019-02-16T19:17:41.401Z,16.77
2019-02-16T19:20:32.880Z,15.68
2019-02-16T19:23:25.486Z,16.82
2019-02-16T19:26:24.678Z,16.02
2019-02-16T19:29:14.498Z,16.52
2019-02-16T19:31:56.387Z,16.27
2019-02-16T19:34:32.701Z,17.15
2019-02-16T19:37:18.216Z,17.55
2019-02-16T19:40:08.727Z,17.92
2019-02-16T19:42:58.500Z,17.10
2019-02-16T19:45:34.927Z,16.77
2019-02-16T19:48:33.637Z,17.05
2019-02-16T19:51:07.429Z,19.02
2019-02-16T19:53:43.627Z,18.35
2019-02-16T19:56:20.444Z,15.83
2019-02-16T19:59:01.204Z,17.10
2019-02-16T20:01:48.996Z,17.87
2019-02-16T20:04:34.279Z,18.87
2019-02-16T20:07:13.162Z,15.95
2019-02-16T20:10:02.893Z,17.15
2019-02-16T20:13:00.758Z,18.12
2019-02-16T20:15:49.095Z,17.42
2019-02-16T20:18:39.942Z,18.40
2019-02-16T20:21:19.566Z,18.40
2019-02-16T20:24:01.247Z,21.12
2019-02-16T20:26:50.551Z,21.10
2019-02-16T20:29:33.317Z,20.75
2019-02-16T20:32:32.255Z,23.32
2019-02-16T20:35:12.265Z,19.32
2019-02-16T20:37:45.406Z,21.93
2019-02-16T20:40:39.406Z,21.62
2019-02-16T20:43:26.276Z,23.47
2019-02-16T20:46:06.424Z,25.45
2019-02-16T20:48:50.578Z,23.30
2019-02-16T20:51:39.803Z,21.17
2019-02-16T20:54:30.447Z,24.25
2019-02-16T20:57:17.293Z,25.40
2019-02-16T20:59:49.574Z,22.95
2019-02-16T21:02:35.495Z,25.43
2019-02-16T21:05:26.479Z,21.73
2019-02-16T21:08:22.037Z,21.15
2019-02-16T21:11:03.560Z,22.52
2019-02-16T21:13:37.808Z,22.20
2019-02-16T21:16:20.100Z,23.27
2019-02-16T21:19:07.041Z,23.12
2019-02-16T21:22:12.158Z,23.10
2019-02-16T21:24:47.594Z,21.00
2019-02-16T21:27:25.735Z,20.35
2019-02-16T21:30:13.728Z,20.90
2019-02-16T21:32:56.419Z,21.45
2019-02-16T21:35:46.328Z,22.65
2019-02-16T21:38:31.735Z,20.10
2019-02-16T21:41:06.927Z,22.02
2019-02-16T21:44:13.708Z,23.65
2019-02-16T21:46:55.519Z,21.85
2019-02-16T21:49:36.382Z,24.18
2019-02-16T21:52:26.166Z,24.07
2019-02-16T21:55:11.895Z,23.35
2019-02-16T21:58:11.050Z,20.95
2019-02-16T22:00:48.891Z,20.37
2019-02-16T22:03:35.182Z,20.32
2019-02-16T22:06:33.810Z,20.40
2019-02-16T22:09:27.121Z,22.77
2019-02-16T22:12:15.956Z,21.95
2019-02-16T22:14:43.594Z,20.82
2019-02-16T22:17:12.204Z,19.05
2019-02-16T22:19:39.435Z,19.95
2019-02-16T22:22:06.829Z,21.15
2019-02-16T22:24:34.089Z,19.85
2019-02-16T22:27:01.253Z,19.60
2019-02-16T22:29:28.643Z,19.50
2019-02-16T22:31:55.928Z,19.73
2019-02-16T22:34:23.114Z,19.95
2019-02-16T22:36:50.428Z,19.17
2019-02-16T22:39:17.751Z,19.75
2019-02-16T22:41:44.758Z,19.85
2019-02-16T22:44:11.838Z,18.50
2019-02-16T22:46:38.841Z,20.32
2019-02-16T22:49:05.930Z,20.92
2019-02-16T22:51:33.028Z,19.32
2019-02-16T22:54:00.036Z,18.15
2019-02-16T22:56:27.046Z,19.62
2019-02-16T22:58:54.093Z,21.15
2019-02-16T23:01:21.307Z,20.85
2019-02-16T23:03:48.775Z,18.32
2019-02-16T23:06:16.015Z,19.73
2019-02-16T23:08:43.124Z,19.30
2019-02-16T23:11:10.332Z,20.12
2019-02-16T23:13:37.528Z,21.45
2019-02-16T23:16:04.961Z,22.45
2019-02-16T23:18:32.125Z,18.92
2019-02-16T23:20:59.684Z,19.57
2019-02-16T23:23:26.788Z,20.17
2019-02-16T23:25:53.909Z,18.77
2019-02-16T23:28:21.351Z,19.05
2019-02-16T23:30:48.845Z,19.07
2019-02-16T23:33:16.100Z,19.62
2019-02-16T23:35:43.375Z,19.77
2019-02-16T23:38:10.511Z,19.42
2019-02-16T23:40:37.669Z,20.85
2019-02-16T23:43:05.225Z,19.90
2019-02-16T23:45:32.400Z,19.25
2019-02-16T23:47:59.587Z,17.92
2019-02-16T23:50:26.881Z,19.52
2019-02-16T23:52:54.396Z,18.27
2019-02-16T23:55:21.904Z,19.20
2019-02-16T23:57:48.975Z,19.90
